sensor_id;sensor_type;location;lat;lon;timestamp;P1;durP1;ratioP1;P2;durP2;ratioP2
33760;SDS011;20084;47.912;19.044;2023-03-02T00:01:52;7.18;;;4.43;;
33760;SDS011;20084;47.912;19.044;2023-03-02T00:07:12;4.25;;;3.75;;
33760;SDS011;20084;47.912;19.044;2023-03-02T00:09:42;4.68;;;3.30;;
33760;SDS011;20084;47.912;19.044;2023-03-02T00:12:08;6.57;;;4.55;;
33760;SDS011;20084;47.912;19.044;2023-03-02T00:14:35;6.47;;;4.07;;
33760;SDS011;20084;47.912;19.044;2023-03-02T00:17:02;23.52;;;12.50;;
33760;SDS011;20084;47.912;19.044;2023-03-02T00:19:28;10.70;;;6.55;;
33760;SDS011;20084;47.912;19.044;2023-03-02T00:21:54;11.77;;;7.13;;
33760;SDS011;20084;47.912;19.044;2023-03-02T00:24:20;7.95;;;4.57;;
33760;SDS011;20084;47.912;19.044;2023-03-02T00:26:45;5.38;;;3.22;;
33760;SDS011;20084;47.912;19.044;2023-03-02T00:29:11;4.50;;;3.42;;
33760;SDS011;20084;47.912;19.044;2023-03-02T00:31:37;5.28;;;3.38;;
33760;SDS011;20084;47.912;19.044;2023-03-02T00:34:03;4.53;;;3.10;;
33760;SDS011;20084;47.912;19.044;2023-03-02T00:36:28;7.40;;;3.53;;
33760;SDS011;20084;47.912;19.044;2023-03-02T00:38:54;5.15;;;3.30;;
33760;SDS011;20084;47.912;19.044;2023-03-02T00:41:21;4.72;;;3.05;;
33760;SDS011;20084;47.912;19.044;2023-03-02T00:43:47;7.20;;;4.18;;
33760;SDS011;20084;47.912;19.044;2023-03-02T00:46:14;4.18;;;3.03;;
33760;SDS011;20084;47.912;19.044;2023-03-02T00:48:42;4.55;;;3.40;;
33760;SDS011;20084;47.912;19.044;2023-03-02T00:51:07;4.82;;;3.60;;
33760;SDS011;20084;47.912;19.044;2023-03-02T00:53:34;6.13;;;3.40;;
33760;SDS011;20084;47.912;19.044;2023-03-02T00:56:00;5.90;;;4.05;;
33760;SDS011;20084;47.912;19.044;2023-03-02T00:58:27;6.93;;;4.60;;
33760;SDS011;20084;47.912;19.044;2023-03-02T01:00:53;10.63;;;5.75;;
33760;SDS011;20084;47.912;19.044;2023-03-02T01:03:19;17.25;;;8.85;;
33760;SDS011;20084;47.912;19.044;2023-03-02T01:05:45;15.27;;;9.30;;
33760;SDS011;20084;47.912;19.044;2023-03-02T01:08:11;18.98;;;9.15;;
33760;SDS011;20084;47.912;19.044;2023-03-02T01:10:37;15.07;;;9.40;;
33760;SDS011;20084;47.912;19.044;2023-03-02T01:13:03;11.52;;;7.25;;
33760;SDS011;20084;47.912;19.044;2023-03-02T01:15:30;8.30;;;6.15;;
33760;SDS011;20084;47.912;19.044;2023-03-02T01:17:58;12.02;;;7.35;;
33760;SDS011;20084;47.912;19.044;2023-03-02T01:20:24;7.22;;;5.53;;
33760;SDS011;20084;47.912;19.044;2023-03-02T01:22:51;9.55;;;6.40;;
33760;SDS011;20084;47.912;19.044;2023-03-02T01:25:17;11.50;;;7.32;;
33760;SDS011;20084;47.912;19.044;2023-03-02T01:27:43;15.52;;;7.97;;
33760;SDS011;20084;47.912;19.044;2023-03-02T01:30:09;12.30;;;7.80;;
33760;SDS011;20084;47.912;19.044;2023-03-02T01:32:36;14.55;;;8.60;;
33760;SDS011;20084;47.912;19.044;2023-03-02T01:35:02;8.40;;;6.07;;
33760;SDS011;20084;47.912;19.044;2023-03-02T01:37:28;10.32;;;5.70;;
33760;SDS011;20084;47.912;19.044;2023-03-02T01:39:54;10.13;;;6.53;;
33760;SDS011;20084;47.912;19.044;2023-03-02T01:42:19;13.80;;;6.10;;
33760;SDS011;20084;47.912;19.044;2023-03-02T01:49:55;6.60;;;4.72;;
33760;SDS011;20084;47.912;19.044;2023-03-02T01:52:24;7.82;;;4.93;;
33760;SDS011;20084;47.912;19.044;2023-03-02T01:54:52;10.15;;;5.72;;
33760;SDS011;20084;47.912;19.044;2023-03-02T01:57:24;8.63;;;6.03;;
33760;SDS011;20084;47.912;19.044;2023-03-02T01:59:55;10.07;;;6.78;;
33760;SDS011;20084;47.912;19.044;2023-03-02T02:02:25;12.05;;;7.18;;
33760;SDS011;20084;47.912;19.044;2023-03-02T02:04:51;9.88;;;7.00;;
33760;SDS011;20084;47.912;19.044;2023-03-02T02:07:19;8.27;;;5.88;;
33760;SDS011;20084;47.912;19.044;2023-03-02T02:09:46;8.20;;;4.93;;
33760;SDS011;20084;47.912;19.044;2023-03-02T02:12:14;8.05;;;4.57;;
33760;SDS011;20084;47.912;19.044;2023-03-02T02:14:42;8.00;;;4.70;;
33760;SDS011;20084;47.912;19.044;2023-03-02T02:17:09;7.45;;;4.50;;
33760;SDS011;20084;47.912;19.044;2023-03-02T02:19:43;7.35;;;5.43;;
33760;SDS011;20084;47.912;19.044;2023-03-02T02:22:23;13.35;;;6.05;;
33760;SDS011;20084;47.912;19.044;2023-03-02T02:24:56;9.50;;;5.03;;
33760;SDS011;20084;47.912;19.044;2023-03-02T02:27:25;9.70;;;5.28;;
33760;SDS011;20084;47.912;19.044;2023-03-02T02:29:57;11.10;;;6.18;;
33760;SDS011;20084;47.912;19.044;2023-03-02T02:32:24;9.07;;;5.88;;
33760;SDS011;20084;47.912;19.044;2023-03-02T02:37:33;10.90;;;7.72;;
33760;SDS011;20084;47.912;19.044;2023-03-02T02:40:14;15.88;;;7.18;;
33760;SDS011;20084;47.912;19.044;2023-03-02T02:42:45;10.95;;;6.85;;
33760;SDS011;20084;47.912;19.044;2023-03-02T02:45:17;8.88;;;5.90;;
33760;SDS011;20084;47.912;19.044;2023-03-02T02:47:50;9.80;;;5.40;;
33760;SDS011;20084;47.912;19.044;2023-03-02T02:50:22;10.68;;;5.97;;
33760;SDS011;20084;47.912;19.044;2023-03-02T02:53:03;8.05;;;4.85;;
33760;SDS011;20084;47.912;19.044;2023-03-02T02:55:33;6.75;;;5.18;;
33760;SDS011;20084;47.912;19.044;2023-03-02T02:58:00;6.95;;;4.63;;
33760;SDS011;20084;47.912;19.044;2023-03-02T03:00:34;7.90;;;4.95;;
33760;SDS011;20084;47.912;19.044;2023-03-02T03:03:02;8.73;;;5.20;;
33760;SDS011;20084;47.912;19.044;2023-03-02T03:11:10;9.57;;;5.70;;
33760;SDS011;20084;47.912;19.044;2023-03-02T03:13:47;9.57;;;6.30;;
33760;SDS011;20084;47.912;19.044;2023-03-02T03:16:18;9.27;;;6.15;;
33760;SDS011;20084;47.912;19.044;2023-03-02T03:18:45;6.85;;;5.55;;
33760;SDS011;20084;47.912;19.044;2023-03-02T03:21:12;7.60;;;5.30;;
33760;SDS011;20084;47.912;19.044;2023-03-02T03:23:38;7.97;;;4.88;;
33760;SDS011;20084;47.912;19.044;2023-03-02T03:26:04;9.50;;;4.60;;
33760;SDS011;20084;47.912;19.044;2023-03-02T03:28:30;8.00;;;4.13;;
33760;SDS011;20084;47.912;19.044;2023-03-02T03:30:56;7.65;;;4.28;;
33760;SDS011;20084;47.912;19.044;2023-03-02T03:33:22;10.55;;;9.10;;
33760;SDS011;20084;47.912;19.044;2023-03-02T03:35:47;9.80;;;4.88;;
33760;SDS011;20084;47.912;19.044;2023-03-02T03:38:13;5.38;;;4.10;;
33760;SDS011;20084;47.912;19.044;2023-03-02T03:40:39;9.30;;;5.07;;
33760;SDS011;20084;47.912;19.044;2023-03-02T03:43:04;7.55;;;5.50;;
33760;SDS011;20084;47.912;19.044;2023-03-02T03:45:30;9.38;;;4.80;;
33760;SDS011;20084;47.912;19.044;2023-03-02T03:47:56;5.93;;;4.32;;
33760;SDS011;20084;47.912;19.044;2023-03-02T03:50:22;8.10;;;4.70;;
33760;SDS011;20084;47.912;19.044;2023-03-02T03:52:48;5.55;;;4.07;;
33760;SDS011;20084;47.912;19.044;2023-03-02T03:55:13;8.13;;;4.90;;
33760;SDS011;20084;47.912;19.044;2023-03-02T03:57:39;7.03;;;4.50;;
33760;SDS011;20084;47.912;19.044;2023-03-02T04:00:06;7.18;;;5.13;;
33760;SDS011;20084;47.912;19.044;2023-03-02T04:02:35;8.77;;;5.10;;
33760;SDS011;20084;47.912;19.044;2023-03-02T04:05:02;7.47;;;4.80;;
33760;SDS011;20084;47.912;19.044;2023-03-02T04:07:31;6.60;;;4.57;;
33760;SDS011;20084;47.912;19.044;2023-03-02T04:09:57;8.95;;;4.60;;
33760;SDS011;20084;47.912;19.044;2023-03-02T04:12:32;6.35;;;4.72;;
33760;SDS011;20084;47.912;19.044;2023-03-02T04:14:59;6.60;;;4.38;;
33760;SDS011;20084;47.912;19.044;2023-03-02T04:17:26;5.85;;;4.38;;
33760;SDS011;20084;47.912;19.044;2023-03-02T04:19:52;7.30;;;4.70;;
33760;SDS011;20084;47.912;19.044;2023-03-02T04:22:18;7.32;;;4.45;;
33760;SDS011;20084;47.912;19.044;2023-03-02T04:24:44;6.97;;;4.30;;
33760;SDS011;20084;47.912;19.044;2023-03-02T04:27:12;5.38;;;3.95;;
33760;SDS011;20084;47.912;19.044;2023-03-02T04:29:38;6.82;;;4.47;;
33760;SDS011;20084;47.912;19.044;2023-03-02T04:32:04;7.70;;;4.30;;
33760;SDS011;20084;47.912;19.044;2023-03-02T04:34:30;7.13;;;4.30;;
33760;SDS011;20084;47.912;19.044;2023-03-02T04:36:56;7.22;;;4.80;;
33760;SDS011;20084;47.912;19.044;2023-03-02T04:39:22;7.78;;;4.05;;
33760;SDS011;20084;47.912;19.044;2023-03-02T04:41:48;7.60;;;4.88;;
33760;SDS011;20084;47.912;19.044;2023-03-02T04:44:14;7.45;;;4.78;;
33760;SDS011;20084;47.912;19.044;2023-03-02T04:46:41;7.47;;;4.40;;
33760;SDS011;20084;47.912;19.044;2023-03-02T04:49:07;7.25;;;4.82;;
33760;SDS011;20084;47.912;19.044;2023-03-02T04:51:34;6.35;;;4.88;;
33760;SDS011;20084;47.912;19.044;2023-03-02T04:54:22;7.45;;;5.00;;
33760;SDS011;20084;47.912;19.044;2023-03-02T04:56:49;6.28;;;4.45;;
33760;SDS011;20084;47.912;19.044;2023-03-02T04:59:16;5.70;;;4.20;;
33760;SDS011;20084;47.912;19.044;2023-03-02T05:01:44;7.22;;;4.03;;
33760;SDS011;20084;47.912;19.044;2023-03-02T05:04:10;5.88;;;3.70;;
33760;SDS011;20084;47.912;19.044;2023-03-02T05:06:36;7.32;;;4.57;;
33760;SDS011;20084;47.912;19.044;2023-03-02T05:09:02;6.80;;;4.32;;
33760;SDS011;20084;47.912;19.044;2023-03-02T05:11:28;6.78;;;4.90;;
33760;SDS011;20084;47.912;19.044;2023-03-02T05:13:56;9.52;;;4.47;;
33760;SDS011;20084;47.912;19.044;2023-03-02T05:16:24;8.45;;;5.38;;
33760;SDS011;20084;47.912;19.044;2023-03-02T05:18:52;17.13;;;8.20;;
33760;SDS011;20084;47.912;19.044;2023-03-02T05:21:18;11.75;;;6.05;;
33760;SDS011;20084;47.912;19.044;2023-03-02T05:23:45;8.35;;;4.20;;
33760;SDS011;20084;47.912;19.044;2023-03-02T05:26:11;6.65;;;3.85;;
33760;SDS011;20084;47.912;19.044;2023-03-02T05:28:37;7.32;;;4.25;;
33760;SDS011;20084;47.912;19.044;2023-03-02T05:31:03;5.57;;;3.83;;
33760;SDS011;20084;47.912;19.044;2023-03-02T05:33:29;7.50;;;4.38;;
33760;SDS011;20084;47.912;19.044;2023-03-02T05:35:55;4.07;;;3.50;;
33760;SDS011;20084;47.912;19.044;2023-03-02T05:38:21;6.32;;;4.13;;
33760;SDS011;20084;47.912;19.044;2023-03-02T05:40:47;5.68;;;4.00;;
33760;SDS011;20084;47.912;19.044;2023-03-02T05:43:17;5.07;;;3.65;;
33760;SDS011;20084;47.912;19.044;2023-03-02T05:45:45;7.25;;;4.13;;
33760;SDS011;20084;47.912;19.044;2023-03-02T05:48:11;9.60;;;5.13;;
33760;SDS011;20084;47.912;19.044;2023-03-02T05:50:37;23.23;;;12.73;;
33760;SDS011;20084;47.912;19.044;2023-03-02T05:53:03;7.97;;;4.93;;
33760;SDS011;20084;47.912;19.044;2023-03-02T05:55:29;7.25;;;4.45;;
33760;SDS011;20084;47.912;19.044;2023-03-02T05:57:55;6.07;;;4.00;;
33760;SDS011;20084;47.912;19.044;2023-03-02T06:00:21;5.13;;;3.78;;
33760;SDS011;20084;47.912;19.044;2023-03-02T06:02:47;7.95;;;4.40;;
33760;SDS011;20084;47.912;19.044;2023-03-02T06:05:15;11.50;;;4.95;;
33760;SDS011;20084;47.912;19.044;2023-03-02T06:07:43;31.95;;;6.07;;
33760;SDS011;20084;47.912;19.044;2023-03-02T06:10:10;10.35;;;4.75;;
33760;SDS011;20084;47.912;19.044;2023-03-02T06:12:36;6.22;;;4.28;;
33760;SDS011;20084;47.912;19.044;2023-03-02T06:15:03;7.20;;;4.82;;
33760;SDS011;20084;47.912;19.044;2023-03-02T06:17:31;9.95;;;5.20;;
33760;SDS011;20084;47.912;19.044;2023-03-02T06:19:57;10.25;;;5.93;;
33760;SDS011;20084;47.912;19.044;2023-03-02T06:22:22;16.50;;;9.70;;
33760;SDS011;20084;47.912;19.044;2023-03-02T06:24:48;20.00;;;12.07;;
33760;SDS011;20084;47.912;19.044;2023-03-02T06:27:14;31.10;;;17.70;;
33760;SDS011;20084;47.912;19.044;2023-03-02T06:29:39;50.53;;;27.83;;
33760;SDS011;20084;47.912;19.044;2023-03-02T06:32:05;38.70;;;25.45;;
33760;SDS011;20084;47.912;19.044;2023-03-02T06:34:31;36.70;;;21.23;;
33760;SDS011;20084;47.912;19.044;2023-03-02T06:36:57;26.48;;;16.85;;
33760;SDS011;20084;47.912;19.044;2023-03-02T06:39:22;21.80;;;14.55;;
33760;SDS011;20084;47.912;19.044;2023-03-02T06:41:48;25.90;;;16.20;;
33760;SDS011;20084;47.912;19.044;2023-03-02T06:44:14;30.67;;;15.45;;
33760;SDS011;20084;47.912;19.044;2023-03-02T06:46:41;23.45;;;14.18;;
33760;SDS011;20084;47.912;19.044;2023-03-02T06:49:08;20.13;;;11.88;;
33760;SDS011;20084;47.912;19.044;2023-03-02T06:51:33;21.40;;;12.50;;
33760;SDS011;20084;47.912;19.044;2023-03-02T06:53:59;24.63;;;12.50;;
33760;SDS011;20084;47.912;19.044;2023-03-02T06:56:25;20.98;;;12.82;;
33760;SDS011;20084;47.912;19.044;2023-03-02T06:58:51;20.73;;;12.48;;
33760;SDS011;20084;47.912;19.044;2023-03-02T07:01:17;19.27;;;11.02;;
33760;SDS011;20084;47.912;19.044;2023-03-02T07:03:43;16.67;;;11.20;;
33760;SDS011;20084;47.912;19.044;2023-03-02T07:06:10;17.35;;;10.60;;
33760;SDS011;20084;47.912;19.044;2023-03-02T07:08:37;17.00;;;11.15;;
33760;SDS011;20084;47.912;19.044;2023-03-02T07:11:07;20.73;;;12.13;;
33760;SDS011;20084;47.912;19.044;2023-03-02T07:13:38;22.20;;;13.77;;
33760;SDS011;20084;47.912;19.044;2023-03-02T07:16:04;21.80;;;12.80;;
33760;SDS011;20084;47.912;19.044;2023-03-02T07:18:34;20.40;;;12.13;;
33760;SDS011;20084;47.912;19.044;2023-03-02T07:21:00;12.05;;;9.18;;
33760;SDS011;20084;47.912;19.044;2023-03-02T07:23:26;11.70;;;7.63;;
33760;SDS011;20084;47.912;19.044;2023-03-02T07:25:52;9.73;;;5.32;;
33760;SDS011;20084;47.912;19.044;2023-03-02T07:28:17;8.73;;;5.47;;
33760;SDS011;20084;47.912;19.044;2023-03-02T07:30:45;9.10;;;5.95;;
33760;SDS011;20084;47.912;19.044;2023-03-02T07:33:11;16.52;;;8.10;;
33760;SDS011;20084;47.912;19.044;2023-03-02T07:35:37;7.47;;;4.85;;
33760;SDS011;20084;47.912;19.044;2023-03-02T07:38:02;16.13;;;5.05;;
33760;SDS011;20084;47.912;19.044;2023-03-02T07:40:28;7.78;;;4.60;;
33760;SDS011;20084;47.912;19.044;2023-03-02T07:42:53;7.00;;;4.80;;
33760;SDS011;20084;47.912;19.044;2023-03-02T07:45:19;7.80;;;5.53;;
33760;SDS011;20084;47.912;19.044;2023-03-02T07:47:48;6.25;;;4.85;;
33760;SDS011;20084;47.912;19.044;2023-03-02T07:50:14;6.68;;;4.70;;
33760;SDS011;20084;47.912;19.044;2023-03-02T07:52:40;8.35;;;5.00;;
33760;SDS011;20084;47.912;19.044;2023-03-02T07:55:06;7.97;;;5.45;;
33760;SDS011;20084;47.912;19.044;2023-03-02T07:57:33;6.82;;;4.80;;
33760;SDS011;20084;47.912;19.044;2023-03-02T07:59:59;9.32;;;4.75;;
33760;SDS011;20084;47.912;19.044;2023-03-02T08:02:24;9.25;;;4.70;;
33760;SDS011;20084;47.912;19.044;2023-03-02T08:04:50;6.38;;;4.32;;
33760;SDS011;20084;47.912;19.044;2023-03-02T08:07:16;5.90;;;4.32;;
33760;SDS011;20084;47.912;19.044;2023-03-02T08:09:42;5.95;;;4.63;;
33760;SDS011;20084;47.912;19.044;2023-03-02T08:12:08;6.05;;;4.20;;
33760;SDS011;20084;47.912;19.044;2023-03-02T08:14:34;6.43;;;4.50;;
33760;SDS011;20084;47.912;19.044;2023-03-02T08:17:00;7.15;;;4.50;;
33760;SDS011;20084;47.912;19.044;2023-03-02T08:19:27;7.93;;;4.75;;
33760;SDS011;20084;47.912;19.044;2023-03-02T08:21:53;4.75;;;3.80;;
33760;SDS011;20084;47.912;19.044;2023-03-02T08:24:19;6.25;;;4.45;;
33760;SDS011;20084;47.912;19.044;2023-03-02T08:26:44;5.68;;;4.50;;
33760;SDS011;20084;47.912;19.044;2023-03-02T08:29:10;6.93;;;4.75;;
33760;SDS011;20084;47.912;19.044;2023-03-02T08:31:36;7.00;;;4.70;;
33760;SDS011;20084;47.912;19.044;2023-03-02T08:34:02;5.38;;;4.20;;
33760;SDS011;20084;47.912;19.044;2023-03-02T08:36:27;5.13;;;4.20;;
33760;SDS011;20084;47.912;19.044;2023-03-02T08:38:53;7.85;;;4.30;;
33760;SDS011;20084;47.912;19.044;2023-03-02T08:41:19;5.47;;;4.47;;
33760;SDS011;20084;47.912;19.044;2023-03-02T08:43:47;5.72;;;4.22;;
33760;SDS011;20084;47.912;19.044;2023-03-02T08:46:15;6.50;;;4.13;;
33760;SDS011;20084;47.912;19.044;2023-03-02T08:48:42;6.65;;;4.28;;
33760;SDS011;20084;47.912;19.044;2023-03-02T08:51:28;5.28;;;3.78;;
33760;SDS011;20084;47.912;19.044;2023-03-02T08:53:53;5.45;;;4.00;;
33760;SDS011;20084;47.912;19.044;2023-03-02T08:56:24;7.72;;;4.22;;
33760;SDS011;20084;47.912;19.044;2023-03-02T08:58:56;7.65;;;4.20;;
33760;SDS011;20084;47.912;19.044;2023-03-02T09:01:24;5.60;;;4.07;;
33760;SDS011;20084;47.912;19.044;2023-03-02T09:03:52;6.43;;;4.50;;
33760;SDS011;20084;47.912;19.044;2023-03-02T09:06:18;5.40;;;4.03;;
33760;SDS011;20084;47.912;19.044;2023-03-02T09:08:44;6.22;;;4.40;;
33760;SDS011;20084;47.912;19.044;2023-03-02T09:11:10;6.03;;;4.30;;
33760;SDS011;20084;47.912;19.044;2023-03-02T09:13:37;7.72;;;3.85;;
33760;SDS011;20084;47.912;19.044;2023-03-02T09:16:03;6.45;;;3.95;;
33760;SDS011;20084;47.912;19.044;2023-03-02T09:18:29;5.40;;;3.78;;
33760;SDS011;20084;47.912;19.044;2023-03-02T09:20:55;6.13;;;3.60;;
33760;SDS011;20084;47.912;19.044;2023-03-02T09:23:22;4.55;;;4.00;;
33760;SDS011;20084;47.912;19.044;2023-03-02T09:25:48;5.20;;;3.67;;
33760;SDS011;20084;47.912;19.044;2023-03-02T09:28:15;5.32;;;4.00;;
33760;SDS011;20084;47.912;19.044;2023-03-02T09:30:41;5.47;;;3.97;;
33760;SDS011;20084;47.912;19.044;2023-03-02T09:33:11;10.73;;;3.90;;
33760;SDS011;20084;47.912;19.044;2023-03-02T09:35:37;8.20;;;5.20;;
33760;SDS011;20084;47.912;19.044;2023-03-02T09:38:03;6.35;;;4.38;;
33760;SDS011;20084;47.912;19.044;2023-03-02T09:40:29;7.28;;;4.15;;
33760;SDS011;20084;47.912;19.044;2023-03-02T09:48:15;5.80;;;4.03;;
33760;SDS011;20084;47.912;19.044;2023-03-02T09:51:06;7.38;;;4.68;;
33760;SDS011;20084;47.912;19.044;2023-03-02T09:56:44;9.27;;;4.47;;
33760;SDS011;20084;47.912;19.044;2023-03-02T10:01:51;4.27;;;3.20;;
33760;SDS011;20084;47.912;19.044;2023-03-02T10:04:23;6.07;;;3.70;;
33760;SDS011;20084;47.912;19.044;2023-03-02T10:07:04;4.43;;;3.83;;
33760;SDS011;20084;47.912;19.044;2023-03-02T10:09:39;5.53;;;3.78;;
33760;SDS011;20084;47.912;19.044;2023-03-02T10:14:58;4.25;;;3.47;;
33760;SDS011;20084;47.912;19.044;2023-03-02T10:19:55;4.65;;;3.30;;
33760;SDS011;20084;47.912;19.044;2023-03-02T10:22:27;6.05;;;3.25;;
33760;SDS011;20084;47.912;19.044;2023-03-02T10:27:53;5.57;;;3.53;;
33760;SDS011;20084;47.912;19.044;2023-03-02T10:30:40;5.72;;;3.42;;
33760;SDS011;20084;47.912;19.044;2023-03-02T10:33:17;4.30;;;3.10;;
33760;SDS011;20084;47.912;19.044;2023-03-02T10:35:46;3.75;;;2.78;;
33760;SDS011;20084;47.912;19.044;2023-03-02T10:38:15;4.25;;;3.28;;
33760;SDS011;20084;47.912;19.044;2023-03-02T10:43:38;4.85;;;3.10;;
33760;SDS011;20084;47.912;19.044;2023-03-02T10:46:10;3.08;;;2.78;;
33760;SDS011;20084;47.912;19.044;2023-03-02T10:48:53;4.38;;;2.88;;
33760;SDS011;20084;47.912;19.044;2023-03-02T10:51:27;4.05;;;3.30;;
33760;SDS011;20084;47.912;19.044;2023-03-02T10:54:04;4.22;;;3.42;;
33760;SDS011;20084;47.912;19.044;2023-03-02T10:56:30;4.70;;;3.08;;
33760;SDS011;20084;47.912;19.044;2023-03-02T10:58:57;4.10;;;3.13;;
33760;SDS011;20084;47.912;19.044;2023-03-02T11:01:27;6.65;;;3.60;;
33760;SDS011;20084;47.912;19.044;2023-03-02T11:03:54;4.47;;;3.20;;
33760;SDS011;20084;47.912;19.044;2023-03-02T11:06:21;5.13;;;3.60;;
33760;SDS011;20084;47.912;19.044;2023-03-02T11:09:00;4.38;;;2.90;;
33760;SDS011;20084;47.912;19.044;2023-03-02T11:11:30;4.13;;;2.90;;
33760;SDS011;20084;47.912;19.044;2023-03-02T11:14:06;3.15;;;2.42;;
33760;SDS011;20084;47.912;19.044;2023-03-02T11:16:33;4.75;;;2.85;;
33760;SDS011;20084;47.912;19.044;2023-03-02T11:19:00;4.75;;;3.47;;
33760;SDS011;20084;47.912;19.044;2023-03-02T11:21:38;3.00;;;2.67;;
33760;SDS011;20084;47.912;19.044;2023-03-02T11:26:53;4.13;;;3.08;;
33760;SDS011;20084;47.912;19.044;2023-03-02T11:29:35;4.60;;;2.83;;
33760;SDS011;20084;47.912;19.044;2023-03-02T11:37:44;3.08;;;2.55;;
33760;SDS011;20084;47.912;19.044;2023-03-02T11:43:23;4.63;;;3.03;;
33760;SDS011;20084;47.912;19.044;2023-03-02T11:45:56;6.65;;;3.63;;
33760;SDS011;20084;47.912;19.044;2023-03-02T11:49:34;3.78;;;3.28;;
33760;SDS011;20084;47.912;19.044;2023-03-02T11:51:32;7.25;;;3.00;;
33760;SDS011;20084;47.912;19.044;2023-03-02T11:54:03;2.95;;;2.63;;
33760;SDS011;20084;47.912;19.044;2023-03-02T11:56:37;4.82;;;3.25;;
33760;SDS011;20084;47.912;19.044;2023-03-02T11:59:12;3.63;;;2.70;;
33760;SDS011;20084;47.912;19.044;2023-03-02T12:01:43;3.75;;;3.03;;
33760;SDS011;20084;47.912;19.044;2023-03-02T12:04:34;5.20;;;3.45;;
33760;SDS011;20084;47.912;19.044;2023-03-02T12:07:02;4.13;;;3.30;;
33760;SDS011;20084;47.912;19.044;2023-03-02T12:09:41;4.97;;;3.90;;
33760;SDS011;20084;47.912;19.044;2023-03-02T12:12:41;5.30;;;3.97;;
33760;SDS011;20084;47.912;19.044;2023-03-02T12:15:03;7.97;;;3.83;;
33760;SDS011;20084;47.912;19.044;2023-03-02T12:17:49;5.78;;;3.60;;
33760;SDS011;20084;47.912;19.044;2023-03-02T12:22:44;8.15;;;3.78;;
33760;SDS011;20084;47.912;19.044;2023-03-02T12:27:45;5.22;;;3.28;;
33760;SDS011;20084;47.912;19.044;2023-03-02T12:30:22;4.85;;;3.60;;
33760;SDS011;20084;47.912;19.044;2023-03-02T12:33:23;5.57;;;3.70;;
33760;SDS011;20084;47.912;19.044;2023-03-02T12:35:46;4.50;;;3.45;;
33760;SDS011;20084;47.912;19.044;2023-03-02T12:38:18;6.57;;;3.58;;
33760;SDS011;20084;47.912;19.044;2023-03-02T12:43:37;4.43;;;3.70;;
33760;SDS011;20084;47.912;19.044;2023-03-02T12:46:31;4.20;;;3.80;;
33760;SDS011;20084;47.912;19.044;2023-03-02T12:51:31;4.30;;;3.47;;
33760;SDS011;20084;47.912;19.044;2023-03-02T12:54:14;5.10;;;3.63;;
33760;SDS011;20084;47.912;19.044;2023-03-02T12:56:42;5.05;;;3.25;;
33760;SDS011;20084;47.912;19.044;2023-03-02T12:59:19;4.32;;;3.55;;
33760;SDS011;20084;47.912;19.044;2023-03-02T13:01:47;8.73;;;3.78;;
33760;SDS011;20084;47.912;19.044;2023-03-02T13:04:22;10.88;;;3.53;;
33760;SDS011;20084;47.912;19.044;2023-03-02T13:06:49;4.78;;;3.55;;
33760;SDS011;20084;47.912;19.044;2023-03-02T13:09:16;4.75;;;3.58;;
33760;SDS011;20084;47.912;19.044;2023-03-02T13:11:44;6.38;;;4.50;;
33760;SDS011;20084;47.912;19.044;2023-03-02T13:14:23;4.22;;;3.15;;
33760;SDS011;20084;47.912;19.044;2023-03-02T13:16:57;4.95;;;3.35;;
33760;SDS011;20084;47.912;19.044;2023-03-02T13:19:27;4.78;;;3.47;;
33760;SDS011;20084;47.912;19.044;2023-03-02T13:21:54;6.05;;;3.67;;
33760;SDS011;20084;47.912;19.044;2023-03-02T13:26:58;8.32;;;3.40;;
33760;SDS011;20084;47.912;19.044;2023-03-02T13:31:56;4.82;;;3.35;;
33760;SDS011;20084;47.912;19.044;2023-03-02T13:34:31;4.45;;;3.55;;
33760;SDS011;20084;47.912;19.044;2023-03-02T13:36:59;3.75;;;3.25;;
33760;SDS011;20084;47.912;19.044;2023-03-02T13:39:26;5.18;;;3.65;;
33760;SDS011;20084;47.912;19.044;2023-03-02T13:41:58;4.65;;;3.50;;
33760;SDS011;20084;47.912;19.044;2023-03-02T13:44:26;4.75;;;3.63;;
33760;SDS011;20084;47.912;19.044;2023-03-02T13:46:56;5.10;;;3.83;;
33760;SDS011;20084;47.912;19.044;2023-03-02T13:49:29;5.25;;;3.90;;
33760;SDS011;20084;47.912;19.044;2023-03-02T13:52:07;5.20;;;3.90;;
33760;SDS011;20084;47.912;19.044;2023-03-02T13:54:42;7.00;;;4.03;;
33760;SDS011;20084;47.912;19.044;2023-03-02T13:57:12;4.65;;;3.67;;
33760;SDS011;20084;47.912;19.044;2023-03-02T13:59:42;4.07;;;3.22;;
33760;SDS011;20084;47.912;19.044;2023-03-02T14:02:20;5.10;;;3.83;;
33760;SDS011;20084;47.912;19.044;2023-03-02T14:04:51;5.90;;;3.80;;
33760;SDS011;20084;47.912;19.044;2023-03-02T14:07:18;5.80;;;3.72;;
33760;SDS011;20084;47.912;19.044;2023-03-02T14:09:45;4.30;;;3.60;;
33760;SDS011;20084;47.912;19.044;2023-03-02T14:12:32;5.32;;;3.90;;
33760;SDS011;20084;47.912;19.044;2023-03-02T14:14:58;4.07;;;3.42;;
33760;SDS011;20084;47.912;19.044;2023-03-02T14:17:25;4.10;;;3.55;;
33760;SDS011;20084;47.912;19.044;2023-03-02T14:19:51;5.00;;;3.50;;
33760;SDS011;20084;47.912;19.044;2023-03-02T14:22:18;5.68;;;3.60;;
33760;SDS011;20084;47.912;19.044;2023-03-02T14:24:44;7.03;;;5.35;;
33760;SDS011;20084;47.912;19.044;2023-03-02T14:27:16;6.07;;;3.80;;
33760;SDS011;20084;47.912;19.044;2023-03-02T14:29:43;7.88;;;3.40;;
33760;SDS011;20084;47.912;19.044;2023-03-02T14:32:11;5.60;;;3.58;;
33760;SDS011;20084;47.912;19.044;2023-03-02T14:34:38;4.70;;;3.35;;
33760;SDS011;20084;47.912;19.044;2023-03-02T14:37:05;4.43;;;3.58;;
33760;SDS011;20084;47.912;19.044;2023-03-02T14:39:39;5.78;;;3.78;;
33760;SDS011;20084;47.912;19.044;2023-03-02T14:42:16;4.82;;;3.80;;
33760;SDS011;20084;47.912;19.044;2023-03-02T14:44:44;5.47;;;3.50;;
33760;SDS011;20084;47.912;19.044;2023-03-02T14:47:10;5.88;;;3.40;;
33760;SDS011;20084;47.912;19.044;2023-03-02T14:49:37;4.80;;;3.20;;
33760;SDS011;20084;47.912;19.044;2023-03-02T14:52:18;5.03;;;3.70;;
33760;SDS011;20084;47.912;19.044;2023-03-02T14:54:59;4.70;;;3.72;;
33760;SDS011;20084;47.912;19.044;2023-03-02T14:57:31;11.82;;;4.20;;
33760;SDS011;20084;47.912;19.044;2023-03-02T14:59:59;12.15;;;3.80;;
33760;SDS011;20084;47.912;19.044;2023-03-02T15:02:25;6.03;;;3.70;;
33760;SDS011;20084;47.912;19.044;2023-03-02T15:04:51;4.63;;;3.65;;
33760;SDS011;20084;47.912;19.044;2023-03-02T15:07:18;4.90;;;3.63;;
33760;SDS011;20084;47.912;19.044;2023-03-02T15:09:46;6.43;;;4.07;;
33760;SDS011;20084;47.912;19.044;2023-03-02T15:12:12;4.20;;;3.80;;
33760;SDS011;20084;47.912;19.044;2023-03-02T15:14:38;5.68;;;3.67;;
33760;SDS011;20084;47.912;19.044;2023-03-02T15:17:04;4.40;;;3.83;;
33760;SDS011;20084;47.912;19.044;2023-03-02T15:19:30;8.88;;;3.50;;
33760;SDS011;20084;47.912;19.044;2023-03-02T15:21:56;29.95;;;20.42;;
33760;SDS011;20084;47.912;19.044;2023-03-02T15:24:22;23.67;;;6.25;;
33760;SDS011;20084;47.912;19.044;2023-03-02T15:26:51;105.10;;;9.13;;
33760;SDS011;20084;47.912;19.044;2023-03-02T15:29:18;45.80;;;7.18;;
33760;SDS011;20084;47.912;19.044;2023-03-02T15:31:44;5.13;;;4.55;;
33760;SDS011;20084;47.912;19.044;2023-03-02T15:34:10;10.40;;;7.95;;
33760;SDS011;20084;47.912;19.044;2023-03-02T15:36:36;26.83;;;14.55;;
33760;SDS011;20084;47.912;19.044;2023-03-02T15:39:03;5.95;;;5.20;;
33760;SDS011;20084;47.912;19.044;2023-03-02T15:41:31;8.27;;;7.13;;
33760;SDS011;20084;47.912;19.044;2023-03-02T15:43:58;12.32;;;5.20;;
33760;SDS011;20084;47.912;19.044;2023-03-02T15:46:24;9.82;;;4.90;;